Botosani, Romania
Current Conditions -  °F | °C
As of 12:00 AM on Friday 19 Dec 2014 (Local Time) from LRSV Reporting Station
Broken Clouds Broken Clouds  
Wind Chill: 32°   Ceiling: 6000
Heat Index: 37°   Visibility: 6mi
Dew Point: 36°   Wind: 7mph
Humidity: 93%   Direction: 250°WSW
Pressure: 30.03"   Gusts: NA
Location:  47.75°N, 26.67°E
Report Text: LRSV 182100Z AUTO 25006KT 9999 BKN060 03/02 Q1017
Loading
Personal Weather Stations






























Interactive Weather Map New forecast layout! Learn more

10-Day Weather Forecast

Advertisements
Track Severe Weather on mobile